sensor_id;sensor_type;location;lat;lon;timestamp;P1;durP1;ratioP1;P2;durP2;ratioP2
49241;SDS011;35079;52.704;13.814;2024-03-08T00:01:52;36.17;;;16.70;;
49241;SDS011;35079;52.704;13.814;2024-03-08T00:04:18;34.60;;;17.65;;
49241;SDS011;35079;52.704;13.814;2024-03-08T00:06:44;38.20;;;18.00;;
49241;SDS011;35079;52.704;13.814;2024-03-08T00:09:11;34.92;;;18.38;;
49241;SDS011;35079;52.704;13.814;2024-03-08T00:11:37;33.30;;;17.00;;
49241;SDS011;35079;52.704;13.814;2024-03-08T00:14:02;36.75;;;16.67;;
49241;SDS011;35079;52.704;13.814;2024-03-08T00:16:31;35.10;;;18.45;;
49241;SDS011;35079;52.704;13.814;2024-03-08T00:18:57;36.85;;;18.50;;
49241;SDS011;35079;52.704;13.814;2024-03-08T00:21:23;38.05;;;18.92;;
49241;SDS011;35079;52.704;13.814;2024-03-08T00:23:49;38.72;;;18.95;;
49241;SDS011;35079;52.704;13.814;2024-03-08T00:26:14;36.35;;;18.30;;
49241;SDS011;35079;52.704;13.814;2024-03-08T00:28:40;40.78;;;17.88;;
49241;SDS011;35079;52.704;13.814;2024-03-08T00:31:06;38.50;;;19.27;;
49241;SDS011;35079;52.704;13.814;2024-03-08T00:33:32;40.58;;;19.02;;
49241;SDS011;35079;52.704;13.814;2024-03-08T00:35:57;39.92;;;18.20;;
49241;SDS011;35079;52.704;13.814;2024-03-08T00:38:23;35.00;;;17.20;;
49241;SDS011;35079;52.704;13.814;2024-03-08T00:40:49;37.13;;;17.60;;
49241;SDS011;35079;52.704;13.814;2024-03-08T00:43:14;38.13;;;18.60;;
49241;SDS011;35079;52.704;13.814;2024-03-08T00:45:40;29.17;;;15.45;;
49241;SDS011;35079;52.704;13.814;2024-03-08T00:48:09;37.78;;;18.48;;
49241;SDS011;35079;52.704;13.814;2024-03-08T00:50:35;36.78;;;18.52;;
49241;SDS011;35079;52.704;13.814;2024-03-08T00:53:01;40.63;;;19.52;;
49241;SDS011;35079;52.704;13.814;2024-03-08T00:55:27;35.22;;;17.58;;
49241;SDS011;35079;52.704;13.814;2024-03-08T00:57:54;38.15;;;19.23;;
49241;SDS011;35079;52.704;13.814;2024-03-08T01:00:20;40.20;;;19.35;;
49241;SDS011;35079;52.704;13.814;2024-03-08T01:02:46;39.95;;;19.13;;
49241;SDS011;35079;52.704;13.814;2024-03-08T01:05:13;38.78;;;18.00;;
49241;SDS011;35079;52.704;13.814;2024-03-08T01:07:38;36.47;;;17.67;;
49241;SDS011;35079;52.704;13.814;2024-03-08T01:10:04;37.38;;;17.70;;
49241;SDS011;35079;52.704;13.814;2024-03-08T01:12:34;40.95;;;18.98;;
49241;SDS011;35079;52.704;13.814;2024-03-08T01:15:00;39.90;;;19.30;;
49241;SDS011;35079;52.704;13.814;2024-03-08T01:17:26;40.55;;;19.27;;
49241;SDS011;35079;52.704;13.814;2024-03-08T01:19:51;36.03;;;18.88;;
49241;SDS011;35079;52.704;13.814;2024-03-08T01:22:18;37.78;;;18.45;;
49241;SDS011;35079;52.704;13.814;2024-03-08T01:24:44;45.22;;;19.92;;
49241;SDS011;35079;52.704;13.814;2024-03-08T01:27:10;37.42;;;18.60;;
49241;SDS011;35079;52.704;13.814;2024-03-08T01:29:36;39.58;;;19.63;;
49241;SDS011;35079;52.704;13.814;2024-03-08T01:32:02;42.50;;;21.00;;
49241;SDS011;35079;52.704;13.814;2024-03-08T01:34:29;45.17;;;20.38;;
49241;SDS011;35079;52.704;13.814;2024-03-08T01:36:54;41.83;;;20.73;;
49241;SDS011;35079;52.704;13.814;2024-03-08T01:39:23;45.72;;;21.20;;
49241;SDS011;35079;52.704;13.814;2024-03-08T01:41:49;44.70;;;20.80;;
49241;SDS011;35079;52.704;13.814;2024-03-08T01:44:14;40.47;;;20.23;;
49241;SDS011;35079;52.704;13.814;2024-03-08T01:46:43;39.80;;;18.83;;
49241;SDS011;35079;52.704;13.814;2024-03-08T01:49:10;39.88;;;17.98;;
49241;SDS011;35079;52.704;13.814;2024-03-08T01:51:37;39.67;;;20.15;;
49241;SDS011;35079;52.704;13.814;2024-03-08T01:54:05;39.85;;;19.92;;
49241;SDS011;35079;52.704;13.814;2024-03-08T01:56:31;35.00;;;18.88;;
49241;SDS011;35079;52.704;13.814;2024-03-08T01:58:57;38.28;;;19.58;;
49241;SDS011;35079;52.704;13.814;2024-03-08T02:01:24;40.88;;;19.55;;
49241;SDS011;35079;52.704;13.814;2024-03-08T02:03:50;41.33;;;20.40;;
49241;SDS011;35079;52.704;13.814;2024-03-08T02:06:16;40.80;;;19.45;;
49241;SDS011;35079;52.704;13.814;2024-03-08T02:08:43;42.85;;;20.85;;
49241;SDS011;35079;52.704;13.814;2024-03-08T02:11:10;40.83;;;19.83;;
49241;SDS011;35079;52.704;13.814;2024-03-08T02:13:36;43.83;;;20.30;;
49241;SDS011;35079;52.704;13.814;2024-03-08T02:16:02;43.83;;;19.70;;
49241;SDS011;35079;52.704;13.814;2024-03-08T02:18:32;45.03;;;20.10;;
49241;SDS011;35079;52.704;13.814;2024-03-08T02:20:59;42.47;;;20.52;;
49241;SDS011;35079;52.704;13.814;2024-03-08T02:23:27;46.83;;;21.70;;
49241;SDS011;35079;52.704;13.814;2024-03-08T02:25:53;41.47;;;19.20;;
49241;SDS011;35079;52.704;13.814;2024-03-08T02:28:20;41.83;;;19.90;;
49241;SDS011;35079;52.704;13.814;2024-03-08T02:30:46;39.35;;;18.83;;
49241;SDS011;35079;52.704;13.814;2024-03-08T02:33:16;44.50;;;21.08;;
49241;SDS011;35079;52.704;13.814;2024-03-08T02:35:43;48.58;;;20.83;;
49241;SDS011;35079;52.704;13.814;2024-03-08T02:38:10;38.92;;;19.23;;
49241;SDS011;35079;52.704;13.814;2024-03-08T02:40:37;34.65;;;18.60;;
49241;SDS011;35079;52.704;13.814;2024-03-08T02:43:02;41.22;;;19.23;;
49241;SDS011;35079;52.704;13.814;2024-03-08T02:45:30;42.80;;;20.73;;
49241;SDS011;35079;52.704;13.814;2024-03-08T02:47:56;41.95;;;19.52;;
49241;SDS011;35079;52.704;13.814;2024-03-08T02:50:21;45.53;;;21.00;;
49241;SDS011;35079;52.704;13.814;2024-03-08T02:52:47;41.65;;;20.58;;
49241;SDS011;35079;52.704;13.814;2024-03-08T02:55:13;42.38;;;20.52;;
49241;SDS011;35079;52.704;13.814;2024-03-08T02:57:42;44.22;;;21.30;;
49241;SDS011;35079;52.704;13.814;2024-03-08T03:00:09;47.47;;;21.48;;
49241;SDS011;35079;52.704;13.814;2024-03-08T03:02:35;46.65;;;21.70;;
49241;SDS011;35079;52.704;13.814;2024-03-08T03:05:02;43.60;;;20.38;;
49241;SDS011;35079;52.704;13.814;2024-03-08T03:07:31;42.15;;;20.60;;
49241;SDS011;35079;52.704;13.814;2024-03-08T03:09:58;44.33;;;22.38;;
49241;SDS011;35079;52.704;13.814;2024-03-08T03:12:25;45.65;;;20.90;;
49241;SDS011;35079;52.704;13.814;2024-03-08T03:14:51;40.45;;;20.75;;
49241;SDS011;35079;52.704;13.814;2024-03-08T03:17:17;40.08;;;20.33;;
49241;SDS011;35079;52.704;13.814;2024-03-08T03:19:43;45.20;;;20.98;;
49241;SDS011;35079;52.704;13.814;2024-03-08T03:22:08;44.28;;;20.70;;
49241;SDS011;35079;52.704;13.814;2024-03-08T03:24:35;43.50;;;20.85;;
49241;SDS011;35079;52.704;13.814;2024-03-08T03:27:03;41.67;;;19.98;;
49241;SDS011;35079;52.704;13.814;2024-03-08T03:29:36;44.42;;;21.05;;
49241;SDS011;35079;52.704;13.814;2024-03-08T03:32:13;44.45;;;21.35;;
49241;SDS011;35079;52.704;13.814;2024-03-08T03:34:40;38.78;;;18.42;;
49241;SDS011;35079;52.704;13.814;2024-03-08T03:37:07;44.65;;;20.60;;
49241;SDS011;35079;52.704;13.814;2024-03-08T03:39:33;46.00;;;21.42;;
49241;SDS011;35079;52.704;13.814;2024-03-08T03:42:02;42.33;;;19.50;;
49241;SDS011;35079;52.704;13.814;2024-03-08T03:44:28;43.08;;;20.80;;
49241;SDS011;35079;52.704;13.814;2024-03-08T03:46:54;39.70;;;18.63;;
49241;SDS011;35079;52.704;13.814;2024-03-08T03:49:19;40.20;;;20.10;;
49241;SDS011;35079;52.704;13.814;2024-03-08T03:51:45;44.15;;;20.77;;
49241;SDS011;35079;52.704;13.814;2024-03-08T03:54:11;41.97;;;20.63;;
49241;SDS011;35079;52.704;13.814;2024-03-08T03:56:37;39.85;;;19.85;;
49241;SDS011;35079;52.704;13.814;2024-03-08T03:59:04;41.10;;;20.77;;
49241;SDS011;35079;52.704;13.814;2024-03-08T04:01:31;50.05;;;21.45;;
49241;SDS011;35079;52.704;13.814;2024-03-08T04:03:57;45.85;;;20.65;;
49241;SDS011;35079;52.704;13.814;2024-03-08T04:06:23;43.33;;;21.85;;
49241;SDS011;35079;52.704;13.814;2024-03-08T04:08:49;41.92;;;20.40;;
49241;SDS011;35079;52.704;13.814;2024-03-08T04:11:15;43.05;;;20.08;;
49241;SDS011;35079;52.704;13.814;2024-03-08T04:13:42;46.00;;;20.75;;
49241;SDS011;35079;52.704;13.814;2024-03-08T04:16:08;44.58;;;22.25;;
49241;SDS011;35079;52.704;13.814;2024-03-08T04:18:36;45.90;;;20.23;;
49241;SDS011;35079;52.704;13.814;2024-03-08T04:21:02;44.78;;;21.75;;
49241;SDS011;35079;52.704;13.814;2024-03-08T04:23:33;40.00;;;20.00;;
49241;SDS011;35079;52.704;13.814;2024-03-08T04:26:01;44.45;;;21.15;;
49241;SDS011;35079;52.704;13.814;2024-03-08T04:28:28;40.15;;;18.88;;
49241;SDS011;35079;52.704;13.814;2024-03-08T04:30:54;49.78;;;21.58;;
49241;SDS011;35079;52.704;13.814;2024-03-08T04:33:19;43.80;;;21.63;;
49241;SDS011;35079;52.704;13.814;2024-03-08T04:35:46;41.85;;;20.85;;
49241;SDS011;35079;52.704;13.814;2024-03-08T04:38:12;43.60;;;19.52;;
49241;SDS011;35079;52.704;13.814;2024-03-08T04:40:38;45.85;;;21.73;;
49241;SDS011;35079;52.704;13.814;2024-03-08T04:43:04;34.35;;;17.40;;
49241;SDS011;35079;52.704;13.814;2024-03-08T04:45:30;43.20;;;21.08;;
49241;SDS011;35079;52.704;13.814;2024-03-08T04:47:56;45.72;;;21.00;;
49241;SDS011;35079;52.704;13.814;2024-03-08T04:50:21;37.40;;;18.08;;
49241;SDS011;35079;52.704;13.814;2024-03-08T04:52:47;41.65;;;19.92;;
49241;SDS011;35079;52.704;13.814;2024-03-08T04:55:13;48.92;;;22.17;;
49241;SDS011;35079;52.704;13.814;2024-03-08T04:57:39;45.38;;;19.88;;
49241;SDS011;35079;52.704;13.814;2024-03-08T05:00:05;46.67;;;21.67;;
49241;SDS011;35079;52.704;13.814;2024-03-08T05:02:36;42.67;;;19.67;;
49241;SDS011;35079;52.704;13.814;2024-03-08T05:05:05;43.22;;;21.52;;
49241;SDS011;35079;52.704;13.814;2024-03-08T05:07:38;46.85;;;22.00;;
49241;SDS011;35079;52.704;13.814;2024-03-08T05:10:04;50.83;;;22.17;;
49241;SDS011;35079;52.704;13.814;2024-03-08T05:12:31;45.22;;;22.00;;
49241;SDS011;35079;52.704;13.814;2024-03-08T05:14:58;53.55;;;22.77;;
49241;SDS011;35079;52.704;13.814;2024-03-08T05:17:23;48.00;;;21.20;;
49241;SDS011;35079;52.704;13.814;2024-03-08T05:19:49;41.00;;;20.25;;
49241;SDS011;35079;52.704;13.814;2024-03-08T05:22:15;51.60;;;23.60;;
49241;SDS011;35079;52.704;13.814;2024-03-08T05:24:42;44.60;;;20.73;;
49241;SDS011;35079;52.704;13.814;2024-03-08T05:27:08;45.72;;;21.92;;
49241;SDS011;35079;52.704;13.814;2024-03-08T05:29:33;48.42;;;22.85;;
49241;SDS011;35079;52.704;13.814;2024-03-08T05:31:59;56.42;;;23.55;;
49241;SDS011;35079;52.704;13.814;2024-03-08T05:34:25;49.63;;;22.40;;
49241;SDS011;35079;52.704;13.814;2024-03-08T05:36:51;51.95;;;22.60;;
49241;SDS011;35079;52.704;13.814;2024-03-08T05:39:19;51.50;;;23.23;;
49241;SDS011;35079;52.704;13.814;2024-03-08T05:41:45;42.67;;;20.45;;
49241;SDS011;35079;52.704;13.814;2024-03-08T05:44:11;41.92;;;21.27;;
49241;SDS011;35079;52.704;13.814;2024-03-08T05:46:38;50.97;;;22.38;;
49241;SDS011;35079;52.704;13.814;2024-03-08T05:49:04;53.25;;;24.85;;
49241;SDS011;35079;52.704;13.814;2024-03-08T05:51:34;48.45;;;22.25;;
49241;SDS011;35079;52.704;13.814;2024-03-08T05:54:01;45.55;;;21.70;;
49241;SDS011;35079;52.704;13.814;2024-03-08T05:56:34;44.42;;;22.75;;
49241;SDS011;35079;52.704;13.814;2024-03-08T05:59:00;47.70;;;22.88;;
49241;SDS011;35079;52.704;13.814;2024-03-08T06:01:26;45.15;;;21.08;;
49241;SDS011;35079;52.704;13.814;2024-03-08T06:03:53;48.72;;;23.70;;
49241;SDS011;35079;52.704;13.814;2024-03-08T06:06:20;47.67;;;23.15;;
49241;SDS011;35079;52.704;13.814;2024-03-08T06:08:46;45.30;;;21.00;;
49241;SDS011;35079;52.704;13.814;2024-03-08T06:11:14;43.00;;;20.95;;
49241;SDS011;35079;52.704;13.814;2024-03-08T06:13:42;49.85;;;22.58;;
49241;SDS011;35079;52.704;13.814;2024-03-08T06:16:08;49.72;;;22.73;;
49241;SDS011;35079;52.704;13.814;2024-03-08T06:18:34;46.17;;;23.08;;
49241;SDS011;35079;52.704;13.814;2024-03-08T06:21:04;48.38;;;23.27;;
49241;SDS011;35079;52.704;13.814;2024-03-08T06:23:37;54.22;;;23.83;;
49241;SDS011;35079;52.704;13.814;2024-03-08T06:26:05;44.05;;;22.70;;
49241;SDS011;35079;52.704;13.814;2024-03-08T06:28:33;44.30;;;23.10;;
49241;SDS011;35079;52.704;13.814;2024-03-08T06:31:02;46.80;;;23.63;;
49241;SDS011;35079;52.704;13.814;2024-03-08T06:33:28;51.92;;;25.83;;
49241;SDS011;35079;52.704;13.814;2024-03-08T06:35:54;48.10;;;23.60;;
49241;SDS011;35079;52.704;13.814;2024-03-08T06:38:23;53.25;;;25.42;;
49241;SDS011;35079;52.704;13.814;2024-03-08T06:40:49;47.15;;;23.45;;
49241;SDS011;35079;52.704;13.814;2024-03-08T06:43:16;41.35;;;21.63;;
49241;SDS011;35079;52.704;13.814;2024-03-08T06:45:42;53.90;;;24.20;;
49241;SDS011;35079;52.704;13.814;2024-03-08T06:48:13;50.78;;;24.20;;
49241;SDS011;35079;52.704;13.814;2024-03-08T06:50:40;51.75;;;24.55;;
49241;SDS011;35079;52.704;13.814;2024-03-08T06:53:05;45.35;;;24.25;;
49241;SDS011;35079;52.704;13.814;2024-03-08T06:55:31;45.85;;;22.63;;
49241;SDS011;35079;52.704;13.814;2024-03-08T06:57:57;46.08;;;23.35;;
49241;SDS011;35079;52.704;13.814;2024-03-08T07:00:23;45.38;;;23.15;;
49241;SDS011;35079;52.704;13.814;2024-03-08T07:02:52;48.42;;;24.15;;
49241;SDS011;35079;52.704;13.814;2024-03-08T07:05:19;50.00;;;24.23;;
49241;SDS011;35079;52.704;13.814;2024-03-08T07:07:45;44.88;;;23.15;;
49241;SDS011;35079;52.704;13.814;2024-03-08T07:10:14;48.05;;;23.90;;
49241;SDS011;35079;52.704;13.814;2024-03-08T07:12:40;52.35;;;25.17;;
49241;SDS011;35079;52.704;13.814;2024-03-08T07:15:16;47.50;;;24.88;;
49241;SDS011;35079;52.704;13.814;2024-03-08T07:17:45;49.10;;;24.15;;
49241;SDS011;35079;52.704;13.814;2024-03-08T07:20:14;46.30;;;23.42;;
49241;SDS011;35079;52.704;13.814;2024-03-08T07:22:44;43.67;;;22.17;;
49241;SDS011;35079;52.704;13.814;2024-03-08T07:25:12;40.67;;;22.42;;
49241;SDS011;35079;52.704;13.814;2024-03-08T07:27:49;46.10;;;23.30;;
49241;SDS011;35079;52.704;13.814;2024-03-08T07:30:18;40.75;;;22.00;;
49241;SDS011;35079;52.704;13.814;2024-03-08T07:33:03;41.92;;;21.48;;
49241;SDS011;35079;52.704;13.814;2024-03-08T07:35:29;42.53;;;21.65;;
49241;SDS011;35079;52.704;13.814;2024-03-08T07:37:56;34.95;;;19.55;;
49241;SDS011;35079;52.704;13.814;2024-03-08T07:40:22;39.13;;;21.45;;
49241;SDS011;35079;52.704;13.814;2024-03-08T07:42:48;37.55;;;21.23;;
49241;SDS011;35079;52.704;13.814;2024-03-08T07:45:18;35.35;;;19.92;;
49241;SDS011;35079;52.704;13.814;2024-03-08T07:47:43;37.90;;;22.05;;
49241;SDS011;35079;52.704;13.814;2024-03-08T07:50:09;36.47;;;20.55;;
49241;SDS011;35079;52.704;13.814;2024-03-08T07:52:35;34.72;;;20.25;;
49241;SDS011;35079;52.704;13.814;2024-03-08T07:55:04;33.35;;;18.50;;
49241;SDS011;35079;52.704;13.814;2024-03-08T08:07:28;34.75;;;20.05;;
49241;SDS011;35079;52.704;13.814;2024-03-08T08:09:54;32.13;;;19.20;;
49241;SDS011;35079;52.704;13.814;2024-03-08T08:12:19;29.83;;;18.55;;
49241;SDS011;35079;52.704;13.814;2024-03-08T08:14:46;26.58;;;17.73;;
49241;SDS011;35079;52.704;13.814;2024-03-08T08:17:11;29.63;;;18.10;;
49241;SDS011;35079;52.704;13.814;2024-03-08T08:19:37;29.42;;;18.75;;
49241;SDS011;35079;52.704;13.814;2024-03-08T08:22:04;29.10;;;17.45;;
49241;SDS011;35079;52.704;13.814;2024-03-08T08:24:29;28.90;;;17.83;;
49241;SDS011;35079;52.704;13.814;2024-03-08T08:26:55;26.92;;;17.33;;
49241;SDS011;35079;52.704;13.814;2024-03-08T08:29:21;31.08;;;16.98;;
49241;SDS011;35079;52.704;13.814;2024-03-08T08:31:47;30.30;;;18.95;;
49241;SDS011;35079;52.704;13.814;2024-03-08T08:34:15;29.63;;;17.90;;
49241;SDS011;35079;52.704;13.814;2024-03-08T08:36:43;30.73;;;18.02;;
49241;SDS011;35079;52.704;13.814;2024-03-08T08:39:10;24.70;;;16.90;;
49241;SDS011;35079;52.704;13.814;2024-03-08T08:41:38;26.35;;;16.80;;
49241;SDS011;35079;52.704;13.814;2024-03-08T08:44:06;27.20;;;17.05;;
49241;SDS011;35079;52.704;13.814;2024-03-08T08:46:35;26.90;;;15.40;;
49241;SDS011;35079;52.704;13.814;2024-03-08T08:49:02;36.63;;;15.77;;
49241;SDS011;35079;52.704;13.814;2024-03-08T08:51:28;25.90;;;15.20;;
49241;SDS011;35079;52.704;13.814;2024-03-08T08:53:54;25.30;;;16.23;;
49241;SDS011;35079;52.704;13.814;2024-03-08T08:56:21;25.65;;;16.85;;
49241;SDS011;35079;52.704;13.814;2024-03-08T08:58:47;26.52;;;16.58;;
49241;SDS011;35079;52.704;13.814;2024-03-08T09:01:14;24.25;;;15.57;;
49241;SDS011;35079;52.704;13.814;2024-03-08T09:03:39;22.35;;;14.82;;
49241;SDS011;35079;52.704;13.814;2024-03-08T09:06:06;28.00;;;15.65;;
49241;SDS011;35079;52.704;13.814;2024-03-08T09:08:35;25.38;;;15.75;;
49241;SDS011;35079;52.704;13.814;2024-03-08T09:17:29;29.08;;;16.17;;
49241;SDS011;35079;52.704;13.814;2024-03-08T09:19:55;26.13;;;16.55;;
49241;SDS011;35079;52.704;13.814;2024-03-08T09:22:22;28.38;;;16.48;;
49241;SDS011;35079;52.704;13.814;2024-03-08T09:24:49;27.65;;;16.83;;
49241;SDS011;35079;52.704;13.814;2024-03-08T09:27:14;27.55;;;16.35;;
49241;SDS011;35079;52.704;13.814;2024-03-08T09:29:40;27.95;;;16.10;;
49241;SDS011;35079;52.704;13.814;2024-03-08T09:32:06;29.48;;;16.63;;
49241;SDS011;35079;52.704;13.814;2024-03-08T09:38:13;31.27;;;16.52;;
49241;SDS011;35079;52.704;13.814;2024-03-08T09:40:42;25.90;;;16.13;;
49241;SDS011;35079;52.704;13.814;2024-03-08T09:43:11;33.38;;;20.58;;
49241;SDS011;35079;52.704;13.814;2024-03-08T09:45:37;33.75;;;19.90;;
49241;SDS011;35079;52.704;13.814;2024-03-08T09:48:07;31.60;;;19.92;;
49241;SDS011;35079;52.704;13.814;2024-03-08T09:50:37;29.02;;;18.23;;
49241;SDS011;35079;52.704;13.814;2024-03-08T09:53:03;34.38;;;20.23;;
49241;SDS011;35079;52.704;13.814;2024-03-08T09:55:33;28.95;;;17.77;;
49241;SDS011;35079;52.704;13.814;2024-03-08T09:58:02;26.63;;;17.00;;
49241;SDS011;35079;52.704;13.814;2024-03-08T10:00:49;28.92;;;16.90;;
49241;SDS011;35079;52.704;13.814;2024-03-08T10:03:15;26.08;;;16.10;;
49241;SDS011;35079;52.704;13.814;2024-03-08T10:05:41;45.13;;;26.02;;
49241;SDS011;35079;52.704;13.814;2024-03-08T10:08:07;27.15;;;18.48;;
49241;SDS011;35079;52.704;13.814;2024-03-08T10:10:42;50.53;;;28.17;;
49241;SDS011;35079;52.704;13.814;2024-03-08T10:13:08;30.83;;;19.02;;
49241;SDS011;35079;52.704;13.814;2024-03-08T10:15:35;27.05;;;17.70;;
49241;SDS011;35079;52.704;13.814;2024-03-08T10:18:01;38.75;;;20.88;;
49241;SDS011;35079;52.704;13.814;2024-03-08T10:20:27;31.65;;;17.90;;
49241;SDS011;35079;52.704;13.814;2024-03-08T10:23:03;24.92;;;16.13;;
49241;SDS011;35079;52.704;13.814;2024-03-08T10:25:30;26.23;;;17.58;;
49241;SDS011;35079;52.704;13.814;2024-03-08T10:27:56;28.25;;;16.48;;
49241;SDS011;35079;52.704;13.814;2024-03-08T10:33:45;29.42;;;17.52;;
49241;SDS011;35079;52.704;13.814;2024-03-08T10:36:12;30.55;;;16.58;;
49241;SDS011;35079;52.704;13.814;2024-03-08T10:38:40;24.58;;;14.93;;
49241;SDS011;35079;52.704;13.814;2024-03-08T10:41:10;24.98;;;15.95;;
49241;SDS011;35079;52.704;13.814;2024-03-08T10:44:23;27.40;;;17.00;;
49241;SDS011;35079;52.704;13.814;2024-03-08T10:49:20;25.65;;;15.48;;
49241;SDS011;35079;52.704;13.814;2024-03-08T10:51:50;29.77;;;16.77;;
49241;SDS011;35079;52.704;13.814;2024-03-08T10:54:20;26.33;;;16.35;;
49241;SDS011;35079;52.704;13.814;2024-03-08T10:56:50;26.88;;;15.75;;
49241;SDS011;35079;52.704;13.814;2024-03-08T10:59:17;26.58;;;15.88;;
49241;SDS011;35079;52.704;13.814;2024-03-08T11:01:44;32.75;;;17.50;;
49241;SDS011;35079;52.704;13.814;2024-03-08T11:04:10;28.33;;;15.48;;
49241;SDS011;35079;52.704;13.814;2024-03-08T11:09:37;26.42;;;16.23;;
49241;SDS011;35079;52.704;13.814;2024-03-08T11:14:49;29.17;;;16.90;;
49241;SDS011;35079;52.704;13.814;2024-03-08T11:17:16;29.90;;;16.90;;
49241;SDS011;35079;52.704;13.814;2024-03-08T11:19:46;28.25;;;16.35;;
49241;SDS011;35079;52.704;13.814;2024-03-08T11:22:55;29.25;;;17.70;;
49241;SDS011;35079;52.704;13.814;2024-03-08T11:25:04;29.30;;;15.68;;
49241;SDS011;35079;52.704;13.814;2024-03-08T11:27:35;33.15;;;17.67;;
49241;SDS011;35079;52.704;13.814;2024-03-08T11:30:05;27.45;;;16.48;;
49241;SDS011;35079;52.704;13.814;2024-03-08T11:32:49;28.00;;;16.40;;
49241;SDS011;35079;52.704;13.814;2024-03-08T11:35:21;28.15;;;15.77;;
49241;SDS011;35079;52.704;13.814;2024-03-08T11:37:50;26.25;;;14.65;;
49241;SDS011;35079;52.704;13.814;2024-03-08T11:40:16;26.67;;;15.05;;
49241;SDS011;35079;52.704;13.814;2024-03-08T11:42:45;26.83;;;15.20;;
49241;SDS011;35079;52.704;13.814;2024-03-08T11:45:12;29.90;;;15.68;;
49241;SDS011;35079;52.704;13.814;2024-03-08T11:47:41;25.73;;;14.50;;
49241;SDS011;35079;52.704;13.814;2024-03-08T11:50:09;22.67;;;14.00;;
49241;SDS011;35079;52.704;13.814;2024-03-08T11:52:36;26.58;;;14.93;;
49241;SDS011;35079;52.704;13.814;2024-03-08T11:55:03;28.17;;;16.52;;
49241;SDS011;35079;52.704;13.814;2024-03-08T11:57:30;25.55;;;16.48;;
49241;SDS011;35079;52.704;13.814;2024-03-08T11:59:57;22.83;;;13.80;;
49241;SDS011;35079;52.704;13.814;2024-03-08T12:02:31;26.02;;;15.23;;
49241;SDS011;35079;52.704;13.814;2024-03-08T12:08:36;22.38;;;14.18;;
49241;SDS011;35079;52.704;13.814;2024-03-08T12:11:14;22.17;;;14.43;;
49241;SDS011;35079;52.704;13.814;2024-03-08T12:13:41;22.20;;;13.55;;
49241;SDS011;35079;52.704;13.814;2024-03-08T12:16:06;25.23;;;14.57;;
49241;SDS011;35079;52.704;13.814;2024-03-08T12:18:37;22.77;;;14.18;;
49241;SDS011;35079;52.704;13.814;2024-03-08T12:21:07;19.95;;;13.30;;
49241;SDS011;35079;52.704;13.814;2024-03-08T12:23:36;26.42;;;15.27;;
49241;SDS011;35079;52.704;13.814;2024-03-08T12:28:41;25.27;;;15.25;;
49241;SDS011;35079;52.704;13.814;2024-03-08T12:31:10;21.15;;;14.90;;
49241;SDS011;35079;52.704;13.814;2024-03-08T12:33:37;21.48;;;14.80;;
49241;SDS011;35079;52.704;13.814;2024-03-08T12:36:31;26.58;;;15.25;;
49241;SDS011;35079;52.704;13.814;2024-03-08T12:38:58;24.85;;;15.27;;
49241;SDS011;35079;52.704;13.814;2024-03-08T12:41:24;25.65;;;15.85;;
49241;SDS011;35079;52.704;13.814;2024-03-08T12:43:52;27.00;;;16.15;;
49241;SDS011;35079;52.704;13.814;2024-03-08T12:46:17;26.08;;;15.98;;
49241;SDS011;35079;52.704;13.814;2024-03-08T12:52:47;29.23;;;16.60;;
49241;SDS011;35079;52.704;13.814;2024-03-08T12:55:38;28.75;;;16.17;;
49241;SDS011;35079;52.704;13.814;2024-03-08T12:58:04;29.30;;;15.80;;
49241;SDS011;35079;52.704;13.814;2024-03-08T13:00:32;27.48;;;17.02;;
49241;SDS011;35079;52.704;13.814;2024-03-08T13:03:01;26.02;;;16.65;;
49241;SDS011;35079;52.704;13.814;2024-03-08T13:05:27;26.50;;;15.20;;
49241;SDS011;35079;52.704;13.814;2024-03-08T13:07:53;25.05;;;15.40;;
49241;SDS011;35079;52.704;13.814;2024-03-08T13:10:20;25.02;;;14.68;;
49241;SDS011;35079;52.704;13.814;2024-03-08T13:12:45;27.55;;;15.13;;
49241;SDS011;35079;52.704;13.814;2024-03-08T13:15:11;25.83;;;15.38;;
49241;SDS011;35079;52.704;13.814;2024-03-08T13:17:45;26.88;;;14.77;;
49241;SDS011;35079;52.704;13.814;2024-03-08T13:20:14;28.13;;;15.95;;
49241;SDS011;35079;52.704;13.814;2024-03-08T13:22:45;28.58;;;16.05;;
49241;SDS011;35079;52.704;13.814;2024-03-08T13:25:11;27.33;;;16.30;;
49241;SDS011;35079;52.704;13.814;2024-03-08T13:27:39;28.35;;;16.92;;
49241;SDS011;35079;52.704;13.814;2024-03-08T13:30:06;28.40;;;15.85;;
49241;SDS011;35079;52.704;13.814;2024-03-08T13:32:32;30.95;;;17.33;;
49241;SDS011;35079;52.704;13.814;2024-03-08T13:34:58;26.35;;;15.65;;
49241;SDS011;35079;52.704;13.814;2024-03-08T13:37:23;28.23;;;16.95;;
49241;SDS011;35079;52.704;13.814;2024-03-08T13:39:49;28.95;;;16.58;;
49241;SDS011;35079;52.704;13.814;2024-03-08T13:42:15;25.05;;;15.73;;
49241;SDS011;35079;52.704;13.814;2024-03-08T13:44:50;26.33;;;16.20;;
49241;SDS011;35079;52.704;13.814;2024-03-08T13:47:16;24.38;;;14.95;;
49241;SDS011;35079;52.704;13.814;2024-03-08T13:49:42;29.42;;;15.43;;
49241;SDS011;35079;52.704;13.814;2024-03-08T13:52:08;27.80;;;15.05;;
49241;SDS011;35079;52.704;13.814;2024-03-08T13:54:35;35.45;;;16.48;;
49241;SDS011;35079;52.704;13.814;2024-03-08T13:57:01;25.98;;;14.95;;
49241;SDS011;35079;52.704;13.814;2024-03-08T13:59:29;25.83;;;15.18;;
49241;SDS011;35079;52.704;13.814;2024-03-08T14:02:00;23.88;;;14.88;;
49241;SDS011;35079;52.704;13.814;2024-03-08T14:04:27;27.88;;;15.85;;
49241;SDS011;35079;52.704;13.814;2024-03-08T14:06:56;24.50;;;14.27;;
49241;SDS011;35079;52.704;13.814;2024-03-08T14:09:26;25.05;;;15.25;;
49241;SDS011;35079;52.704;13.814;2024-03-08T14:11:54;24.63;;;14.80;;
49241;SDS011;35079;52.704;13.814;2024-03-08T14:14:20;27.45;;;14.57;;
49241;SDS011;35079;52.704;13.814;2024-03-08T14:16:48;27.00;;;14.50;;
49241;SDS011;35079;52.704;13.814;2024-03-08T14:19:17;21.70;;;13.18;;
49241;SDS011;35079;52.704;13.814;2024-03-08T14:21:44;24.02;;;13.05;;
49241;SDS011;35079;52.704;13.814;2024-03-08T14:24:09;20.73;;;12.98;;
49241;SDS011;35079;52.704;13.814;2024-03-08T14:26:35;38.05;;;14.68;;
49241;SDS011;35079;52.704;13.814;2024-03-08T14:29:03;24.08;;;13.80;;
49241;SDS011;35079;52.704;13.814;2024-03-08T14:31:30;22.30;;;12.80;;
49241;SDS011;35079;52.704;13.814;2024-03-08T14:33:56;25.15;;;14.05;;
49241;SDS011;35079;52.704;13.814;2024-03-08T14:36:24;23.58;;;13.10;;
49241;SDS011;35079;52.704;13.814;2024-03-08T14:38:50;23.85;;;13.50;;
49241;SDS011;35079;52.704;13.814;2024-03-08T14:41:17;23.08;;;13.25;;
49241;SDS011;35079;52.704;13.814;2024-03-08T14:43:43;21.10;;;13.77;;
49241;SDS011;35079;52.704;13.814;2024-03-08T14:46:12;23.45;;;13.77;;
49241;SDS011;35079;52.704;13.814;2024-03-08T14:48:55;27.77;;;16.88;;
49241;SDS011;35079;52.704;13.814;2024-03-08T14:51:23;22.30;;;13.18;;
49241;SDS011;35079;52.704;13.814;2024-03-08T14:53:54;21.75;;;12.77;;